Time;durP1;ratioP1;P1;durP2;ratioP2;P2;SDS_P1;SDS_P2;PMS_P1;PMS_P2;Temp;Humidity;BMP_temperature;BMP_pressure;BME280_temperature;BME280_humidity;BME280_pressure;Samples;Min_cycle;Max_cycle;Signal;HPM_P1;HPM_P2
2022/04/28 00:00:19;;;;;;;17.33;5.68;;;;;;;6.59;100.00;102802.47;5204395;28;20386;-69
2022/04/28 00:02:50;;;;;;;14.82;5.82;;;;;;;6.57;100.00;102796.34;5204430;28;20479;-68
2022/04/28 00:05:22;;;;;;;18.55;6.00;;;;;;;6.53;100.00;102808.19;5204093;28;20026;-69
2022/04/28 00:07:53;;;;;;;17.02;5.85;;;;;;;6.52;100.00;102811.78;5204131;28;20029;-68
2022/04/28 00:10:24;;;;;;;23.95;6.35;;;;;;;6.48;100.00;102797.78;5204163;28;20039;-68
2022/04/28 00:12:54;;;;;;;23.52;7.03;;;;;;;6.46;100.00;102800.53;5204123;28;20041;-68
2022/04/28 00:15:25;;;;;;;18.65;5.85;;;;;;;6.44;100.00;102799.78;5203795;28;20092;-68
2022/04/28 00:17:56;;;;;;;17.83;6.05;;;;;;;6.37;100.00;102800.22;5203821;28;20056;-68
2022/04/28 00:20:27;;;;;;;11.63;5.90;;;;;;;6.33;100.00;102807.56;5204026;28;20027;-69
2022/04/28 00:22:57;;;;;;;25.45;6.70;;;;;;;6.28;100.00;102801.66;5204143;28;20115;-68
2022/04/28 00:25:28;;;;;;;18.08;5.93;;;;;;;6.24;100.00;102797.44;5203825;28;20477;-68
2022/04/28 00:27:58;;;;;;;14.82;5.72;;;;;;;6.20;100.00;102799.41;5203997;28;20056;-69
2022/04/28 00:30:29;;;;;;;15.70;5.68;;;;;;;6.18;100.00;102797.81;5203358;28;20021;-68
2022/04/28 00:32:59;;;;;;;14.82;5.57;;;;;;;6.15;100.00;102797.97;5204061;28;20013;-68
2022/04/28 00:35:30;;;;;;;17.73;5.95;;;;;;;6.13;100.00;102805.22;5203734;28;20017;-68
2022/04/28 00:38:00;;;;;;;19.50;5.88;;;;;;;6.14;100.00;102802.44;5184476;28;20491;-68
2022/04/28 00:40:31;;;;;;;19.95;6.03;;;;;;;6.12;100.00;102796.31;5203965;28;20021;-68
2022/04/28 00:45:50;;;;;;;13.57;5.57;;;;;;;6.11;100.00;102799.09;5202063;28;20426;-68
2022/04/28 00:51:12;;;;;;;18.65;5.70;;;;;;;6.05;100.00;102802.13;5203366;28;20434;-68
2022/04/28 00:53:46;;;;;;;23.70;6.47;;;;;;;6.00;100.00;102801.53;5203726;28;20036;-67
2022/04/28 00:56:17;;;;;;;15.85;6.10;;;;;;;5.95;100.00;102804.47;5203590;28;20379;-67
2022/04/28 00:58:49;;;;;;;20.30;6.05;;;;;;;5.91;100.00;102801.09;5203693;28;20029;-67
2022/04/28 01:01:20;;;;;;;15.00;6.18;;;;;;;5.89;100.00;102802.13;5203490;28;20068;-68
2022/04/28 01:03:50;;;;;;;15.35;6.47;;;;;;;5.87;100.00;102793.34;5203559;28;20053;-68
2022/04/28 01:06:22;;;;;;;18.42;6.28;;;;;;;5.84;100.00;102790.88;5203650;28;20025;-67
2022/04/28 01:08:55;;;;;;;19.55;6.68;;;;;;;5.83;100.00;102791.81;5203508;28;20025;-68
2022/04/28 01:11:27;;;;;;;22.17;7.50;;;;;;;5.80;100.00;102797.31;5203617;28;20022;-68
2022/04/28 01:13:57;;;;;;;13.95;6.85;;;;;;;5.76;100.00;102791.28;5202126;28;20029;-68
2022/04/28 01:16:28;;;;;;;22.50;6.40;;;;;;;5.76;100.00;102787.78;5203131;28;20048;-68
2022/04/28 01:19:00;;;;;;;11.05;5.68;;;;;;;5.69;100.00;102793.47;5203513;28;20032;-67
2022/04/28 01:21:30;;;;;;;17.67;6.13;;;;;;;5.67;100.00;102791.81;5203551;28;20080;-68
2022/04/28 01:24:03;;;;;;;17.35;6.32;;;;;;;5.65;100.00;102789.25;5203414;28;20033;-67
2022/04/28 01:26:34;;;;;;;18.13;6.45;;;;;;;5.66;100.00;102795.44;5203369;28;20379;-68
2022/04/28 01:29:05;;;;;;;13.70;6.15;;;;;;;5.69;100.00;102796.13;5203318;28;20037;-67
2022/04/28 01:31:35;;;;;;;19.63;6.38;;;;;;;5.66;100.00;102798.94;5203509;28;20079;-68
2022/04/28 01:34:06;;;;;;;16.30;6.57;;;;;;;5.63;100.00;102803.59;5203621;28;20083;-68
2022/04/28 01:36:37;;;;;;;17.08;6.15;;;;;;;5.59;100.00;102800.25;5194137;28;20018;-67
2022/04/28 01:39:09;;;;;;;35.95;7.55;;;;;;;5.58;100.00;102803.00;5192103;28;20394;-68
2022/04/28 01:41:40;;;;;;;23.90;7.20;;;;;;;5.54;100.00;102797.00;5203439;28;20029;-68
2022/04/28 01:44:11;;;;;;;15.35;6.00;;;;;;;5.51;100.00;102797.16;5203393;28;20040;-68
2022/04/28 01:46:42;;;;;;;16.77;6.80;;;;;;;5.50;100.00;102805.22;5202380;28;20395;-68
2022/04/28 01:49:13;;;;;;;17.83;6.25;;;;;;;5.49;100.00;102803.53;5203253;28;20033;-68
2022/04/28 01:57:22;;;;;;;15.27;7.03;;;;;;;5.42;100.00;102801.22;5204674;28;20053;-68
2022/04/28 01:59:54;;;;;;;13.95;6.47;;;;;;;5.41;100.00;102799.47;5206569;28;20095;-68
2022/04/28 02:02:25;;;;;;;25.63;6.63;;;;;;;5.45;100.00;102809.00;5206723;28;20022;-69
2022/04/28 02:04:59;;;;;;;14.23;5.95;;;;;;;5.41;100.00;102796.81;5206751;28;20356;-68
2022/04/28 02:07:30;;;;;;;16.27;6.03;;;;;;;5.36;100.00;102806.84;5206747;28;20029;-68
2022/04/28 02:10:00;;;;;;;17.85;6.45;;;;;;;5.26;100.00;102797.66;5206693;28;20052;-68
2022/04/28 02:12:31;;;;;;;21.73;7.10;;;;;;;5.22;100.00;102796.13;5206298;28;20048;-68
2022/04/28 02:15:03;;;;;;;16.13;6.38;;;;;;;5.19;100.00;102790.97;5206433;28;20021;-68
2022/04/28 02:17:36;;;;;;;15.60;5.78;;;;;;;5.17;100.00;102795.50;5206832;28;20033;-68
2022/04/28 02:20:09;;;;;;;20.35;6.38;;;;;;;5.18;100.00;102800.75;5206661;28;20025;-68
2022/04/28 02:22:40;;;;;;;18.27;6.47;;;;;;;5.17;100.00;102801.69;5205286;28;20022;-68
2022/04/28 02:25:10;;;;;;;20.15;7.05;;;;;;;5.15;100.00;102800.91;5205623;28;20036;-68
2022/04/28 02:27:41;;;;;;;21.45;6.72;;;;;;;5.09;100.00;102798.56;5206647;28;20390;-68
2022/04/28 02:30:11;;;;;;;19.25;7.80;;;;;;;5.07;100.00;102797.81;5206291;28;20116;-68
2022/04/28 02:35:31;;;;;;;22.05;7.63;;;;;;;5.01;100.00;102794.59;5205528;28;20025;-68
2022/04/28 02:38:01;;;;;;;17.85;7.15;;;;;;;5.02;100.00;102793.66;5199536;28;20072;-67
2022/04/28 02:40:32;;;;;;;28.95;8.93;;;;;;;5.02;100.00;102791.00;5206334;28;20022;-68
2022/04/28 02:43:03;;;;;;;23.98;7.20;;;;;;;5.00;100.00;102795.56;5206527;28;20079;-68
2022/04/28 02:45:33;;;;;;;18.92;6.97;;;;;;;4.99;100.00;102786.72;5204543;28;20029;-68
2022/04/28 02:48:05;;;;;;;21.65;6.97;;;;;;;4.94;100.00;102799.41;5205686;28;20518;-68
2022/04/28 02:50:35;;;;;;;22.60;7.13;;;;;;;4.92;100.00;102795.97;5205911;28;20049;-68
2022/04/28 02:53:06;;;;;;;24.33;7.05;;;;;;;4.88;100.00;102797.09;5205993;28;20434;-68
2022/04/28 02:55:39;;;;;;;20.95;7.30;;;;;;;4.85;100.00;102798.09;5205664;28;20053;-68
2022/04/28 02:58:10;;;;;;;18.77;7.07;;;;;;;4.84;100.00;102800.84;5205770;28;20036;-68
2022/04/28 03:00:40;;;;;;;28.20;8.00;;;;;;;4.81;100.00;102798.31;5205526;28;20033;-67
2022/04/28 03:03:11;;;;;;;21.95;7.03;;;;;;;4.77;100.00;102796.78;5205868;28;20033;-68
2022/04/28 03:11:20;;;;;;;21.52;7.85;;;;;;;4.68;100.00;102790.16;5205627;28;20486;-69
2022/04/28 03:13:50;;;;;;;16.67;7.20;;;;;;;4.63;100.00;102794.84;5205285;28;20177;-69
2022/04/28 03:16:21;;;;;;;21.30;7.53;;;;;;;4.59;100.00;102790.63;5194042;28;20049;-68
2022/04/28 03:18:51;;;;;;;25.75;8.35;;;;;;;4.59;100.00;102795.94;5205462;28;20021;-68
2022/04/28 03:21:22;;;;;;;22.52;7.70;;;;;;;4.62;100.00;102793.16;5205259;28;20502;-69
2022/04/28 03:23:52;;;;;;;15.82;6.95;;;;;;;4.58;100.00;102796.91;5205536;28;20025;-69
2022/04/28 03:26:23;;;;;;;24.35;8.23;;;;;;;4.55;100.00;102794.38;5204871;28;20391;-70
2022/04/28 03:28:53;;;;;;;22.00;7.25;;;;;;;4.53;100.00;102793.63;5205230;28;20029;-69
2022/04/28 03:31:24;;;;;;;19.50;7.93;;;;;;;4.48;100.00;102799.16;5205802;28;20115;-69
2022/04/28 03:33:55;;;;;;;22.13;7.65;;;;;;;4.45;100.00;102801.97;5204826;28;20037;-69
2022/04/28 03:39:14;;;;;;;23.45;8.15;;;;;;;4.38;100.00;102804.09;5195285;28;20018;-68
2022/04/28 03:41:45;;;;;;;27.38;8.95;;;;;;;4.35;100.00;102804.25;5205006;28;20503;-68
2022/04/28 03:44:15;;;;;;;23.42;8.10;;;;;;;4.33;100.00;102803.47;5204557;28;20108;-69
2022/04/28 03:46:46;;;;;;;24.33;7.55;;;;;;;4.31;100.00;102807.97;5204096;28;20113;-69
2022/04/28 03:49:16;;;;;;;22.95;7.97;;;;;;;4.36;100.00;102808.59;5205007;28;20021;-69
2022/04/28 03:51:47;;;;;;;23.10;7.97;;;;;;;4.39;100.00;102819.09;5204690;28;20044;-68
2022/04/28 03:54:17;;;;;;;16.95;8.25;;;;;;;4.45;100.00;102809.94;5204735;28;20029;-69
2022/04/28 03:56:47;;;;;;;28.02;7.95;;;;;;;4.45;100.00;102809.94;5204324;28;20062;-69
2022/04/28 03:59:19;;;;;;;14.13;7.20;;;;;;;4.47;100.00;102807.19;5204776;28;20433;-68
2022/04/28 04:01:51;;;;;;;21.48;7.55;;;;;;;4.41;100.00;102811.03;5204592;28;20063;-69
2022/04/28 04:04:21;;;;;;;21.67;8.45;;;;;;;4.37;100.00;102810.34;5204413;28;20025;-69
2022/04/28 04:06:51;;;;;;;24.98;8.18;;;;;;;4.31;100.00;102807.97;5204415;28;20032;-68
2022/04/28 04:09:23;;;;;;;22.73;8.13;;;;;;;4.27;100.00;102805.59;5204041;28;20078;-68
2022/04/28 04:11:54;;;;;;;20.20;8.68;;;;;;;4.24;100.00;102817.22;5205176;28;20103;-68
2022/04/28 04:14:24;;;;;;;27.30;8.85;;;;;;;4.22;100.00;102819.09;5204011;28;20108;-69
2022/04/28 04:16:55;;;;;;;24.35;8.30;;;;;;;4.19;100.00;102813.06;5204418;28;20500;-68
2022/04/28 04:19:25;;;;;;;24.88;9.32;;;;;;;4.19;100.00;102813.06;5204519;28;20037;-68
2022/04/28 04:21:56;;;;;;;24.00;9.88;;;;;;;4.14;100.00;102819.47;5203044;28;20025;-68
2022/04/28 04:24:27;;;;;;;27.00;9.32;;;;;;;4.13;100.00;102814.25;5204156;28;20378;-69
2022/04/28 04:26:58;;;;;;;19.20;7.68;;;;;;;4.09;100.00;102816.19;5204052;28;20602;-69
2022/04/28 04:29:28;;;;;;;18.90;8.35;;;;;;;4.09;100.00;102821.50;5204536;28;20041;-68
2022/04/28 04:32:20;;;;;;;26.17;10.48;;;;;;;4.10;100.00;102820.56;5203942;28;20022;-68
2022/04/28 04:34:53;;;;;;;24.88;8.65;;;;;;;4.08;100.00;102814.47;5203831;28;20467;-69
2022/04/28 04:37:26;;;;;;;28.48;9.55;;;;;;;4.12;100.00;102823.16;5195284;28;20022;-69
2022/04/28 04:39:56;;;;;;;23.05;8.32;;;;;;;4.16;100.00;102819.38;5199814;28;20484;-68
2022/04/28 04:42:27;;;;;;;30.40;8.65;;;;;;;4.19;100.00;102824.56;5203747;28;20172;-68
2022/04/28 04:44:57;;;;;;;23.27;9.48;;;;;;;4.27;100.00;102826.84;5203540;28;20064;-68
2022/04/28 04:47:28;;;;;;;29.58;9.07;;;;;;;4.35;100.00;102822.00;5203988;28;20025;-68
2022/04/28 04:49:58;;;;;;;24.15;8.70;;;;;;;4.41;100.00;102829.63;5203853;28;20025;-68
2022/04/28 04:52:29;;;;;;;21.50;10.35;;;;;;;4.50;100.00;102828.31;5204171;28;20120;-68
2022/04/28 04:55:00;;;;;;;26.88;10.13;;;;;;;4.57;100.00;102829.75;5203158;28;20067;-68
2022/04/28 04:57:31;;;;;;;23.60;9.80;;;;;;;4.66;100.00;102823.94;5204093;28;20025;-67
2022/04/28 05:00:04;;;;;;;24.73;10.43;;;;;;;4.72;100.00;102831.59;5203890;28;20025;-68
2022/04/28 05:02:34;;;;;;;27.00;10.68;;;;;;;4.79;100.00;102834.78;5203598;28;20117;-68
2022/04/28 05:05:05;;;;;;;30.15;9.43;;;;;;;4.87;100.00;102841.44;5203579;28;20096;-69
2022/04/28 05:07:36;;;;;;;25.45;10.77;;;;;;;4.92;100.00;102847.38;5203254;28;20475;-68
2022/04/28 05:10:06;;;;;;;28.83;9.85;;;;;;;5.05;100.00;102852.03;5203759;28;20064;-68
2022/04/28 05:12:37;;;;;;;24.52;9.30;;;;;;;5.13;100.00;102848.03;5203949;28;20245;-69
2022/04/28 05:15:08;;;;;;;26.13;11.10;;;;;;;5.24;100.00;102858.09;5203313;28;20026;-68
2022/04/28 05:17:38;;;;;;;40.78;11.25;;;;;;;5.31;100.00;102858.63;5203796;28;20075;-69
2022/04/28 05:20:09;;;;;;;30.30;9.93;;;;;;;5.39;100.00;102857.25;5203059;28;20025;-68
2022/04/28 05:22:39;;;;;;;26.08;10.25;;;;;;;5.50;100.00;102858.47;5203489;28;20398;-68
2022/04/28 05:25:10;;;;;;;24.55;10.20;;;;;;;5.59;100.00;102868.63;5203048;28;20022;-67
2022/04/28 05:27:41;;;;;;;26.52;10.50;;;;;;;5.68;100.00;102861.00;5203504;28;20060;-68
2022/04/28 05:30:11;;;;;;;23.30;9.57;;;;;;;5.79;100.00;102862.19;5203564;28;20030;-68
2022/04/28 05:32:42;;;;;;;24.95;10.23;;;;;;;5.89;100.00;102869.56;5205115;28;20116;-68
2022/04/28 05:35:12;;;;;;;23.75;10.18;;;;;;;6.01;100.00;102875.19;5207257;28;20025;-68
2022/04/28 05:37:43;;;;;;;27.92;10.07;;;;;;;6.12;100.00;102872.75;5188088;28;20022;-68
2022/04/28 05:40:15;;;;;;;28.15;10.35;;;;;;;6.23;100.00;102881.88;5205298;28;20037;-68
2022/04/28 05:48:24;;;;;;;27.92;10.25;;;;;;;6.72;100.00;102894.13;5207071;28;20022;-68
2022/04/28 05:50:58;;;;;;;22.77;9.98;;;;;;;7.01;100.00;102898.56;5207041;28;20570;-68
2022/04/28 05:53:28;;;;;;;29.63;9.35;;;;;;;7.52;100.00;102896.28;5206885;28;20037;-68
2022/04/28 05:55:59;;;;;;;24.40;9.73;;;;;;;8.25;100.00;102903.22;5206908;28;20010;-69
2022/04/28 05:58:29;;;;;;;22.30;8.95;;;;;;;8.69;100.00;102899.44;5207167;28;20068;-69
2022/04/28 06:01:00;;;;;;;26.23;9.38;;;;;;;9.07;100.00;102896.78;5206781;28;20032;-69
2022/04/28 06:03:31;;;;;;;20.65;9.20;;;;;;;9.44;100.00;102895.06;5206867;28;20052;-69
2022/04/28 06:06:01;;;;;;;23.90;9.55;;;;;;;9.71;100.00;102894.06;5206191;28;20060;-68
2022/04/28 06:08:32;;;;;;;19.80;9.13;;;;;;;10.02;100.00;102893.53;5206916;28;20049;-69
2022/04/28 06:11:03;;;;;;;25.40;9.45;;;;;;;10.24;100.00;102903.56;5206868;28;20044;-69
2022/04/28 06:13:33;;;;;;;21.60;9.73;;;;;;;10.42;100.00;102904.00;5206738;28;20029;-69
2022/04/28 06:16:04;;;;;;;17.70;9.00;;;;;;;10.77;100.00;102905.84;5206352;28;20479;-69
2022/04/28 06:18:34;;;;;;;19.52;8.93;;;;;;;11.17;100.00;102913.50;5206317;28;20095;-68
2022/04/28 06:21:05;;;;;;;21.48;8.85;;;;;;;11.18;100.00;102905.31;5206349;28;20053;-69
2022/04/28 06:23:36;;;;;;;15.10;8.68;;;;;;;11.26;100.00;102918.16;5206555;28;20079;-69
2022/04/28 06:26:06;;;;;;;19.05;9.30;;;;;;;11.28;100.00;102924.25;5206180;28;20697;-69
2022/04/28 06:28:36;;;;;;;22.35;9.20;;;;;;;11.38;100.00;102930.63;5206275;28;20112;-69
2022/04/28 06:31:08;;;;;;;24.13;9.70;;;;;;;12.06;100.00;102920.72;5206312;28;20075;-69
2022/04/28 06:33:40;;;;;;;22.30;9.32;;;;;;;12.39;100.00;102923.31;5206259;28;20478;-69
2022/04/28 06:36:11;;;;;;;21.13;9.30;;;;;;;12.28;100.00;102933.25;5201065;28;20068;-69
2022/04/28 06:38:41;;;;;;;21.25;10.45;;;;;;;12.42;100.00;102932.97;5204968;28;20483;-69
2022/04/28 06:41:12;;;;;;;20.35;9.93;;;;;;;12.86;100.00;102937.31;5204771;28;20025;-69
2022/04/28 06:43:42;;;;;;;21.35;8.88;;;;;;;12.63;100.00;102935.72;5205186;28;20382;-69
2022/04/28 06:46:13;;;;;;;24.13;9.07;;;;;;;12.55;100.00;102933.69;5204239;28;20115;-70
2022/04/28 06:48:43;;;;;;;22.42;10.02;;;;;;;12.84;100.00;102939.28;5198263;28;20075;-69
2022/04/28 06:51:15;;;;;;;24.45;10.50;;;;;;;12.64;100.00;102938.25;5197693;28;20038;-70
2022/04/28 06:53:45;;;;;;;24.10;11.02;;;;;;;12.52;100.00;102936.63;5203459;28;20060;-69
2022/04/28 06:56:16;;;;;;;31.83;10.02;;;;;;;12.81;100.00;102944.09;5203121;28;20109;-70
2022/04/28 06:58:47;;;;;;;23.15;9.82;;;;;;;13.03;100.00;102953.88;5203870;28;20104;-70
2022/04/28 07:01:17;;;;;;;23.85;9.85;;;;;;;13.41;100.00;102958.69;5204050;28;20546;-69
2022/04/28 07:03:49;;;;;;;21.10;10.07;;;;;;;13.81;100.00;102958.75;5203603;28;20059;-70
2022/04/28 07:06:20;;;;;;;26.23;10.25;;;;;;;13.94;100.00;102958.50;5202472;28;20033;-70
2022/04/28 07:08:50;;;;;;;16.35;8.90;;;;;;;14.52;100.00;102964.06;5203857;28;20021;-70
2022/04/28 07:11:21;;;;;;;22.67;9.95;;;;;;;14.42;100.00;102964.00;5203242;28;20117;-70
2022/04/28 07:13:52;;;;;;;16.75;10.25;;;;;;;14.80;100.00;102961.50;5203019;28;20119;-70
2022/04/28 07:16:22;;;;;;;24.58;10.95;;;;;;;14.95;100.00;102965.47;5202792;28;20018;-70
2022/04/28 07:18:53;;;;;;;18.45;10.70;;;;;;;14.92;100.00;102972.03;5202742;28;20079;-70
2022/04/28 07:21:23;;;;;;;19.95;10.93;;;;;;;15.24;100.00;102977.09;5203199;28;20108;-70
2022/04/28 07:23:54;;;;;;;19.42;9.88;;;;;;;15.58;99.48;102982.00;5202890;28;20029;-70
2022/04/28 07:26:24;;;;;;;24.10;10.38;;;;;;;15.67;95.75;102983.84;5202236;28;20035;-70
2022/04/28 07:28:55;;;;;;;21.83;9.93;;;;;;;15.78;93.28;102982.81;5203217;28;20390;-70
2022/04/28 07:31:25;;;;;;;26.88;10.27;;;;;;;15.60;97.89;102981.84;5202504;28;20033;-70
2022/04/28 07:33:56;;;;;;;25.30;10.10;;;;;;;15.69;92.95;102981.84;5202513;28;20053;-71
2022/04/28 07:36:26;;;;;;;22.45;11.30;;;;;;;16.02;94.53;102990.41;5201686;28;20026;-70
2022/04/28 07:38:58;;;;;;;19.92;9.57;;;;;;;16.60;93.73;102981.91;5190538;28;20053;-71
2022/04/28 07:41:29;;;;;;;21.50;9.60;;;;;;;16.16;87.03;102983.59;5203364;28;20048;-70
2022/04/28 07:44:00;;;;;;;19.52;10.40;;;;;;;15.64;90.59;102988.69;5202168;28;20033;-70
2022/04/28 07:46:30;;;;;;;19.45;9.55;;;;;;;16.46;92.54;102987.84;5201099;28;20030;-70
2022/04/28 07:49:02;;;;;;;19.50;10.23;;;;;;;16.89;91.66;102995.25;5202692;28;20029;-70
2022/04/28 07:51:32;;;;;;;27.77;11.35;;;;;;;17.26;87.82;102995.03;5202652;28;20021;-71
2022/04/28 07:54:04;;;;;;;24.83;10.73;;;;;;;17.57;85.94;102995.44;5202195;28;20100;-71
2022/04/28 07:56:34;;;;;;;21.70;10.00;;;;;;;17.74;81.82;102993.69;5201777;28;20132;-71
2022/04/28 07:59:07;;;;;;;19.10;9.90;;;;;;;17.78;81.76;102996.94;5202235;28;20044;-71
2022/04/28 08:01:37;;;;;;;22.20;9.75;;;;;;;18.55;79.67;102993.13;5202579;28;20029;-71
2022/04/28 08:04:08;;;;;;;27.60;10.30;;;;;;;18.47;79.66;103001.25;5201804;28;20036;-71
2022/04/28 08:06:38;;;;;;;33.25;10.02;;;;;;;18.54;78.85;102999.59;5201901;28;20030;-71
2022/04/28 08:09:09;;;;;;;16.52;9.68;;;;;;;18.87;75.93;103003.22;5201936;28;20032;-71
2022/04/28 08:11:41;;;;;;;25.27;10.40;;;;;;;18.70;77.09;102997.94;5202254;28;20036;-72
2022/04/28 08:14:12;;;;;;;19.17;9.60;;;;;;;18.55;75.88;103000.44;5200751;28;20074;-71
2022/04/28 08:16:44;;;;;;;23.80;9.70;;;;;;;17.89;73.04;103007.50;5201680;28;20463;-71
2022/04/28 08:19:15;;;;;;;20.08;10.57;;;;;;;17.85;73.56;103004.25;5201588;28;20022;-71
2022/04/28 08:21:46;;;;;;;20.00;9.32;;;;;;;17.79;77.70;103007.63;5201851;28;20025;-71
2022/04/28 08:24:17;;;;;;;16.52;9.15;;;;;;;18.46;77.77;103009.56;5201077;28;20021;-71
2022/04/28 08:26:47;;;;;;;18.98;10.00;;;;;;;18.64;77.32;103013.88;5201647;28;20079;-71
2022/04/28 08:29:18;;;;;;;24.25;10.13;;;;;;;18.68;74.12;103013.56;5201752;28;20108;-71
2022/04/28 08:31:49;;;;;;;17.05;9.30;;;;;;;18.52;73.02;103015.19;5201204;28;20032;-71
2022/04/28 08:34:19;;;;;;;16.27;9.30;;;;;;;17.86;70.94;103011.38;5201168;28;20025;-71
2022/04/28 08:36:51;;;;;;;20.77;9.75;;;;;;;17.51;73.22;103009.63;5197262;28;20021;-71
2022/04/28 08:39:21;;;;;;;28.83;10.27;;;;;;;17.97;73.48;103003.97;5192539;28;20096;-71
2022/04/28 08:41:53;;;;;;;16.13;9.10;;;;;;;17.76;70.00;103010.66;5201461;28;20109;-71
2022/04/28 08:44:26;;;;;;;15.25;9.15;;;;;;;17.99;71.92;103008.22;5199689;28;20048;-71
2022/04/28 08:46:58;;;;;;;20.08;9.07;;;;;;;17.56;71.17;103009.16;5189576;28;20030;-71
2022/04/28 08:49:30;;;;;;;21.40;9.15;;;;;;;17.33;71.41;103009.69;5201647;28;20021;-71
2022/04/28 08:52:02;;;;;;;21.73;9.13;;;;;;;17.38;74.29;103011.06;5201540;28;20039;-71
2022/04/28 08:54:36;;;;;;;17.55;9.13;;;;;;;18.27;72.34;103010.69;5199901;28;20411;-71
2022/04/28 08:57:07;;;;;;;19.60;8.80;;;;;;;17.98;68.04;103005.69;5201040;28;20356;-71
2022/04/28 08:59:37;;;;;;;15.23;8.50;;;;;;;18.18;70.42;103017.16;5200922;28;20036;-71
2022/04/28 09:02:11;;;;;;;19.60;9.45;;;;;;;18.80;72.55;103012.22;5201242;28;20446;-71
2022/04/28 09:04:41;;;;;;;13.30;8.02;;;;;;;18.81;65.85;103009.34;5200397;28;20390;-70
2022/04/28 09:07:12;;;;;;;17.75;8.52;;;;;;;18.76;69.91;103008.13;5201714;28;20030;-71
2022/04/28 09:09:42;;;;;;;19.35;9.05;;;;;;;19.15;66.83;103011.06;5205340;28;20029;-71
2022/04/28 09:12:13;;;;;;;18.50;9.48;;;;;;;19.12;67.93;103004.06;5205481;28;20108;-72
2022/04/28 09:14:43;;;;;;;20.52;9.48;;;;;;;19.27;69.05;103003.38;5204451;28;20035;-71
2022/04/28 09:17:14;;;;;;;18.92;9.35;;;;;;;19.55;68.50;103006.59;5204987;28;20078;-71
2022/04/28 09:19:45;;;;;;;22.00;8.93;;;;;;;19.95;64.70;103011.09;5205113;28;20261;-71
2022/04/28 09:22:15;;;;;;;23.08;10.02;;;;;;;19.28;62.97;102997.78;5204626;28;20411;-71
2022/04/28 09:24:46;;;;;;;20.58;9.10;;;;;;;19.21;65.67;103002.19;5204347;28;20021;-71
2022/04/28 09:27:21;;;;;;;20.23;9.18;;;;;;;19.35;63.68;103009.66;5204998;28;21122;-71
2022/04/28 09:29:51;;;;;;;21.70;9.27;;;;;;;19.46;62.39;103002.16;5205287;28;20033;-71
2022/04/28 09:32:25;;;;;;;21.55;10.05;;;;;;;19.45;62.70;103000.47;5204416;28;20021;-71
2022/04/28 09:35:06;;;;;;;19.02;8.95;;;;;;;19.21;63.19;102994.03;5204295;28;20044;-71
2022/04/28 09:37:38;;;;;;;19.05;9.60;;;;;;;19.41;63.56;102994.53;5194731;28;20039;-71
2022/04/28 09:42:58;;;;;;;20.88;9.13;;;;;;;20.36;63.61;102995.38;5204972;28;20029;-71
2022/04/28 09:45:29;;;;;;;16.55;9.02;;;;;;;20.35;63.65;102993.69;5202648;28;20383;-71
2022/04/28 09:48:01;;;;;;;18.92;9.52;;;;;;;20.54;61.83;102988.84;5204785;28;20388;-71
2022/04/28 09:50:33;;;;;;;18.08;9.82;;;;;;;20.89;59.17;102988.25;5204863;28;20126;-71
2022/04/28 09:53:05;;;;;;;20.65;9.95;;;;;;;20.74;59.45;102990.06;5204269;28;20025;-71
2022/04/28 09:55:39;;;;;;;21.23;10.02;;;;;;;20.23;59.59;102997.88;5203876;28;20024;-71
2022/04/28 09:58:11;;;;;;;18.93;9.83;;;;;;;19.74;55.71;102989.88;5204385;28;20025;-71
2022/04/28 10:00:42;;;;;;;18.48;9.63;;;;;;;19.98;60.36;102986.22;5204487;28;20279;-71
2022/04/28 10:03:14;;;;;;;17.63;9.45;;;;;;;20.32;61.86;102983.13;5204112;28;20487;-71
2022/04/28 10:05:45;;;;;;;23.92;10.52;;;;;;;20.84;60.47;102970.72;5203256;28;20037;-71
2022/04/28 10:08:17;;;;;;;22.63;10.70;;;;;;;20.80;60.67;102977.59;5204441;28;20098;-71
2022/04/28 10:10:50;;;;;;;14.80;9.80;;;;;;;20.80;60.25;102970.25;5204316;28;20491;-71
2022/04/28 10:13:21;;;;;;;19.38;9.85;;;;;;;20.59;62.38;102967.34;5204224;28;20025;-71
2022/04/28 10:15:55;;;;;;;20.95;10.15;;;;;;;20.27;58.58;102977.38;5202626;28;20029;-71
2022/04/28 10:18:33;;;;;;;16.30;9.57;;;;;;;20.50;57.53;102962.97;5202877;28;20032;-71
2022/04/28 10:21:07;;;;;;;21.42;10.93;;;;;;;19.80;58.28;102977.44;5203882;28;20398;-71
2022/04/28 10:33:04;;;;;;;21.20;10.18;;;;;;;19.35;62.12;102959.84;5204658;28;20497;-71
2022/04/28 10:35:55;;;;;;;21.33;11.25;;;;;;;19.49;64.12;102958.28;5203110;28;20506;-71
2022/04/28 10:38:30;;;;;;;23.83;11.75;;;;;;;19.25;61.13;102962.75;5190270;28;20038;-71
2022/04/28 10:41:03;;;;;;;22.15;11.30;;;;;;;19.30;61.74;102957.63;5203827;28;20061;-71
2022/04/28 10:43:33;;;;;;;20.58;10.82;;;;;;;19.39;62.00;102966.63;5203791;28;20033;-71
2022/04/28 10:46:04;;;;;;;20.90;11.48;;;;;;;19.84;64.91;102957.00;5202010;28;20029;-71
2022/04/28 10:48:38;;;;;;;23.65;11.70;;;;;;;19.74;62.26;102957.22;5203496;28;20067;-71
2022/04/28 10:51:30;;;;;;;18.98;10.48;;;;;;;19.97;61.62;102950.97;5203139;28;20044;-71
2022/04/28 10:54:01;;;;;;;22.85;12.30;;;;;;;20.09;62.89;102950.41;5203396;28;20064;-71
2022/04/28 10:56:41;;;;;;;20.55;11.15;;;;;;;20.07;59.33;102959.78;5202729;28;20053;-71
2022/04/28 10:59:34;;;;;;;22.60;11.60;;;;;;;20.34;62.80;102950.28;5203061;28;20053;-71
2022/04/28 11:02:20;;;;;;;20.73;11.45;;;;;;;20.73;62.55;102946.59;5203346;28;20032;-71
2022/04/28 11:05:01;;;;;;;23.23;12.70;;;;;;;20.80;59.56;102948.41;5202634;28;20037;-71
2022/04/28 11:07:32;;;;;;;23.85;11.77;;;;;;;20.90;59.31;102945.44;5203183;28;20081;-71
2022/04/28 11:10:04;;;;;;;19.33;11.23;;;;;;;21.04;62.13;102941.91;5202822;28;20413;-71
2022/04/28 11:12:37;;;;;;;22.75;11.98;;;;;;;20.96;63.20;102939.25;5202864;28;20029;-71
2022/04/28 11:15:10;;;;;;;24.98;12.05;;;;;;;20.97;58.75;102940.09;5201780;28;20108;-71
2022/04/28 11:17:44;;;;;;;21.92;11.95;;;;;;;20.84;60.16;102938.84;5203046;28;20106;-71
2022/04/28 11:20:19;;;;;;;26.00;11.43;;;;;;;20.81;64.23;102944.66;5203174;28;20467;-71
2022/04/28 11:22:51;;;;;;;23.83;12.07;;;;;;;20.95;62.86;102940.28;5202982;28;20029;-71
2022/04/28 11:25:22;;;;;;;18.55;11.98;;;;;;;21.13;59.53;102937.19;5201626;28;20017;-71
2022/04/28 11:27:54;;;;;;;20.15;11.73;;;;;;;20.37;59.40;102939.84;5202879;28;20029;-72
2022/04/28 11:30:26;;;;;;;19.15;11.48;;;;;;;19.99;59.36;102944.34;5200779;28;20056;-71
2022/04/28 11:32:58;;;;;;;29.30;11.57;;;;;;;20.29;59.16;102937.19;5202866;28;20076;-71
2022/04/28 11:35:31;;;;;;;27.02;11.80;;;;;;;20.46;58.79;102937.06;5202699;28;20049;-71
2022/04/28 11:38:03;;;;;;;25.23;11.73;;;;;;;19.82;60.33;102938.09;5194689;28;20036;-71
2022/04/28 11:40:35;;;;;;;26.63;12.52;;;;;;;19.32;61.24;102936.53;5202740;28;20021;-71
2022/04/28 11:43:06;;;;;;;26.85;12.73;;;;;;;19.53;62.06;102937.81;5197993;28;20057;-71
2022/04/28 11:45:37;;;;;;;27.05;11.95;;;;;;;19.67;59.55;102939.84;5201409;28;20083;-71
2022/04/28 11:48:07;;;;;;;23.08;11.93;;;;;;;19.44;60.14;102933.47;5202560;28;20509;-71
2022/04/28 11:50:38;;;;;;;31.20;12.65;;;;;;;19.90;64.50;102931.78;5202142;28;20033;-71
2022/04/28 11:53:12;;;;;;;20.48;11.68;;;;;;;20.16;62.39;102929.59;5202579;28;20022;-71
2022/04/28 11:55:42;;;;;;;23.60;12.15;;;;;;;20.37;61.80;102926.19;5201201;28;20025;-71
2022/04/28 11:58:15;;;;;;;20.67;11.57;;;;;;;20.49;60.67;102914.94;5201861;28;20029;-71
2022/04/28 12:00:47;;;;;;;23.10;12.05;;;;;;;20.96;60.75;102920.16;5202283;28;20029;-71
2022/04/28 12:03:36;;;;;;;21.08;10.77;;;;;;;21.30;61.06;102921.50;5202460;28;20029;-71
2022/04/28 12:06:07;;;;;;;22.02;11.50;;;;;;;21.00;60.63;102917.91;5201050;28;20084;-72
2022/04/28 12:08:39;;;;;;;25.80;12.32;;;;;;;21.06;60.48;102925.34;5201698;28;20029;-71
2022/04/28 12:20:01;;;;;;;28.50;12.45;;;;;;;20.30;60.14;102910.78;5201738;28;20025;-71
2022/04/28 12:22:35;;;;;;;29.25;12.65;;;;;;;20.68;62.16;102915.28;5201663;28;20052;-71